sensor_id;sensor_type;location;lat;lon;timestamp;temperature;humidity
34201;DHT22;20469;55.638;37.670;2022-10-16T00:03:50;5.70;99.90
34201;DHT22;20469;55.638;37.670;2022-10-16T00:06:20;5.80;99.90
34201;DHT22;20469;55.638;37.670;2022-10-16T00:26:14;5.70;95.80
34201;DHT22;20469;55.638;37.670;2022-10-16T00:36:11;5.70;95.70
34201;DHT22;20469;55.638;37.670;2022-10-16T00:43:47;5.60;99.90
34201;DHT22;20469;55.638;37.670;2022-10-16T00:46:20;5.60;99.90
34201;DHT22;20469;55.638;37.670;2022-10-16T01:27:09;5.20;99.90
34201;DHT22;20469;55.638;37.670;2022-10-16T01:35:26;5.40;99.90
34201;DHT22;20469;55.638;37.670;2022-10-16T01:43:00;4.90;99.90
34201;DHT22;20469;55.638;37.670;2022-10-16T01:45:31;4.80;99.90
34201;DHT22;20469;55.638;37.670;2022-10-16T02:10:32;5.10;99.90
34201;DHT22;20469;55.638;37.670;2022-10-16T02:23:28;5.30;99.90
34201;DHT22;20469;55.638;37.670;2022-10-16T04:27:00;4.40;99.90
34201;DHT22;20469;55.638;37.670;2022-10-16T04:44:15;5.50;99.90
34201;DHT22;20469;55.638;37.670;2022-10-16T04:46:43;5.30;99.90
34201;DHT22;20469;55.638;37.670;2022-10-16T04:59:09;4.60;99.90
34201;DHT22;20469;55.638;37.670;2022-10-16T05:01:37;4.00;99.90
34201;DHT22;20469;55.638;37.670;2022-10-16T05:04:04;4.40;99.90
34201;DHT22;20469;55.638;37.670;2022-10-16T05:08:59;4.60;99.90
34201;DHT22;20469;55.638;37.670;2022-10-16T05:11:27;4.70;99.90
34201;DHT22;20469;55.638;37.670;2022-10-16T05:13:54;4.60;99.90
34201;DHT22;20469;55.638;37.670;2022-10-16T05:16:22;4.30;99.90
34201;DHT22;20469;55.638;37.670;2022-10-16T05:18:51;4.80;99.90
34201;DHT22;20469;55.638;37.670;2022-10-16T05:21:26;4.60;99.90
34201;DHT22;20469;55.638;37.670;2022-10-16T05:23:53;4.70;99.90
34201;DHT22;20469;55.638;37.670;2022-10-16T05:26:22;4.80;99.90
34201;DHT22;20469;55.638;37.670;2022-10-16T05:28:50;4.90;99.90
34201;DHT22;20469;55.638;37.670;2022-10-16T05:31:17;4.90;99.90
34201;DHT22;20469;55.638;37.670;2022-10-16T05:33:45;5.10;99.90
34201;DHT22;20469;55.638;37.670;2022-10-16T05:36:12;5.10;99.90
34201;DHT22;20469;55.638;37.670;2022-10-16T05:38:40;5.00;99.90
34201;DHT22;20469;55.638;37.670;2022-10-16T05:41:08;5.10;99.90
34201;DHT22;20469;55.638;37.670;2022-10-16T05:43:35;5.00;99.90
34201;DHT22;20469;55.638;37.670;2022-10-16T05:46:04;5.00;99.90
34201;DHT22;20469;55.638;37.670;2022-10-16T05:51:02;5.70;99.90
34201;DHT22;20469;55.638;37.670;2022-10-16T05:53:33;5.70;99.90
34201;DHT22;20469;55.638;37.670;2022-10-16T05:56:02;5.10;99.90
34201;DHT22;20469;55.638;37.670;2022-10-16T05:58:34;5.70;99.90
34201;DHT22;20469;55.638;37.670;2022-10-16T06:01:05;5.50;99.90
34201;DHT22;20469;55.638;37.670;2022-10-16T06:03:34;5.40;99.90
34201;DHT22;20469;55.638;37.670;2022-10-16T06:06:19;5.60;99.90
34201;DHT22;20469;55.638;37.670;2022-10-16T06:08:48;5.80;99.90
34201;DHT22;20469;55.638;37.670;2022-10-16T06:11:19;6.00;99.90
34201;DHT22;20469;55.638;37.670;2022-10-16T06:13:50;5.90;99.90
34201;DHT22;20469;55.638;37.670;2022-10-16T06:16:19;6.50;99.90
34201;DHT22;20469;55.638;37.670;2022-10-16T06:18:46;6.00;99.90
34201;DHT22;20469;55.638;37.670;2022-10-16T06:21:19;6.20;99.90
34201;DHT22;20469;55.638;37.670;2022-10-16T06:23:48;6.00;99.90
34201;DHT22;20469;55.638;37.670;2022-10-16T06:26:18;6.10;99.90
34201;DHT22;20469;55.638;37.670;2022-10-16T06:31:15;6.00;99.90
34201;DHT22;20469;55.638;37.670;2022-10-16T06:36:15;6.10;99.90
34201;DHT22;20469;55.638;37.670;2022-10-16T06:38:43;6.30;99.90
34201;DHT22;20469;55.638;37.670;2022-10-16T06:41:13;6.40;99.90
34201;DHT22;20469;55.638;37.670;2022-10-16T06:43:41;6.60;99.90
34201;DHT22;20469;55.638;37.670;2022-10-16T06:46:10;6.50;99.90
34201;DHT22;20469;55.638;37.670;2022-10-16T06:51:10;6.40;93.20
34201;DHT22;20469;55.638;37.670;2022-10-16T06:53:40;6.80;91.10
34201;DHT22;20469;55.638;37.670;2022-10-16T06:56:29;6.70;91.30
34201;DHT22;20469;55.638;37.670;2022-10-16T07:01:29;6.70;88.70
34201;DHT22;20469;55.638;37.670;2022-10-16T07:04:01;6.50;95.30
34201;DHT22;20469;55.638;37.670;2022-10-16T07:06:32;6.90;82.30
34201;DHT22;20469;55.638;37.670;2022-10-16T07:09:02;6.80;83.50
34201;DHT22;20469;55.638;37.670;2022-10-16T07:11:30;7.40;93.20
34201;DHT22;20469;55.638;37.670;2022-10-16T07:16:27;7.00;76.40
34201;DHT22;20469;55.638;37.670;2022-10-16T07:18:56;7.50;72.40
34201;DHT22;20469;55.638;37.670;2022-10-16T07:21:31;7.30;95.20
34201;DHT22;20469;55.638;37.670;2022-10-16T07:24:10;7.70;78.70
34201;DHT22;20469;55.638;37.670;2022-10-16T07:26:43;7.30;66.20
34201;DHT22;20469;55.638;37.670;2022-10-16T07:29:20;7.30;65.60
34201;DHT22;20469;55.638;37.670;2022-10-16T07:31:54;7.70;93.00
34201;DHT22;20469;55.638;37.670;2022-10-16T07:34:27;6.90;92.20
34201;DHT22;20469;55.638;37.670;2022-10-16T07:36:54;7.50;91.90
34201;DHT22;20469;55.638;37.670;2022-10-16T07:41:49;8.30;85.30
34201;DHT22;20469;55.638;37.670;2022-10-16T07:49:14;7.60;87.80
34201;DHT22;20469;55.638;37.670;2022-10-16T07:51:44;6.70;54.40
34201;DHT22;20469;55.638;37.670;2022-10-16T07:54:12;8.00;53.80
34201;DHT22;20469;55.638;37.670;2022-10-16T08:01:38;8.60;61.70
34201;DHT22;20469;55.638;37.670;2022-10-16T08:04:06;9.00;79.00
34201;DHT22;20469;55.638;37.670;2022-10-16T08:06:37;8.20;47.80
34201;DHT22;20469;55.638;37.670;2022-10-16T08:09:06;8.70;47.70
34201;DHT22;20469;55.638;37.670;2022-10-16T08:11:34;8.90;45.30
34201;DHT22;20469;55.638;37.670;2022-10-16T08:16:31;8.60;49.40
34201;DHT22;20469;55.638;37.670;2022-10-16T08:19:02;9.00;43.00
34201;DHT22;20469;55.638;37.670;2022-10-16T08:21:33;8.80;43.40
34201;DHT22;20469;55.638;37.670;2022-10-16T08:24:04;8.80;43.60
34201;DHT22;20469;55.638;37.670;2022-10-16T08:29:03;9.40;72.30
34201;DHT22;20469;55.638;37.670;2022-10-16T08:31:34;9.30;64.60
34201;DHT22;20469;55.638;37.670;2022-10-16T08:34:03;9.30;37.70
34201;DHT22;20469;55.638;37.670;2022-10-16T08:36:34;9.40;35.70
34201;DHT22;20469;55.638;37.670;2022-10-16T08:39:05;9.00;45.90
34201;DHT22;20469;55.638;37.670;2022-10-16T08:42:02;9.50;32.90
34201;DHT22;20469;55.638;37.670;2022-10-16T08:47:48;10.00;58.00
34201;DHT22;20469;55.638;37.670;2022-10-16T08:50:23;9.70;29.40
34201;DHT22;20469;55.638;37.670;2022-10-16T08:55:31;10.00;28.40
34201;DHT22;20469;55.638;37.670;2022-10-16T09:00:30;10.00;25.90
34201;DHT22;20469;55.638;37.670;2022-10-16T09:06:17;10.00;25.20
34201;DHT22;20469;55.638;37.670;2022-10-16T09:09:07;13.10;25.60
34201;DHT22;20469;55.638;37.670;2022-10-16T09:14:52;10.30;22.40
34201;DHT22;20469;55.638;37.670;2022-10-16T09:20:19;8.30;20.70
34201;DHT22;20469;55.638;37.670;2022-10-16T09:25:19;10.70;20.10
34201;DHT22;20469;55.638;37.670;2022-10-16T09:27:50;11.10;19.10
34201;DHT22;20469;55.638;37.670;2022-10-16T09:30:21;10.70;22.30
34201;DHT22;20469;55.638;37.670;2022-10-16T09:32:52;10.90;17.20
34201;DHT22;20469;55.638;37.670;2022-10-16T09:35:26;11.20;15.50
34201;DHT22;20469;55.638;37.670;2022-10-16T09:40:26;11.10;15.20
34201;DHT22;20469;55.638;37.670;2022-10-16T09:43:06;11.50;14.10
34201;DHT22;20469;55.638;37.670;2022-10-16T09:48:11;11.40;12.20
34201;DHT22;20469;55.638;37.670;2022-10-16T09:53:12;11.50;11.20
34201;DHT22;20469;55.638;37.670;2022-10-16T09:55:49;12.20;9.30
34201;DHT22;20469;55.638;37.670;2022-10-16T10:00:53;11.90;6.90
34201;DHT22;20469;55.638;37.670;2022-10-16T10:03:37;12.50;5.40
34201;DHT22;20469;55.638;37.670;2022-10-16T10:08:55;12.40;4.40
34201;DHT22;20469;55.638;37.670;2022-10-16T10:14:15;17.70;1.00
34201;DHT22;20469;55.638;37.670;2022-10-16T10:19:22;15.30;1.00
34201;DHT22;20469;55.638;37.670;2022-10-16T10:27:09;16.30;1.00
34201;DHT22;20469;55.638;37.670;2022-10-16T10:29:52;16.20;1.00
34201;DHT22;20469;55.638;37.670;2022-10-16T10:32:33;16.10;1.00
34201;DHT22;20469;55.638;37.670;2022-10-16T10:35:14;14.80;1.00
34201;DHT22;20469;55.638;37.670;2022-10-16T10:38:00;15.80;1.00
34201;DHT22;20469;55.638;37.670;2022-10-16T10:40:42;16.70;1.00
34201;DHT22;20469;55.638;37.670;2022-10-16T10:43:27;15.10;1.00
34201;DHT22;20469;55.638;37.670;2022-10-16T10:46:03;15.90;1.00
34201;DHT22;20469;55.638;37.670;2022-10-16T10:48:52;14.80;1.00
34201;DHT22;20469;55.638;37.670;2022-10-16T10:51:31;15.70;1.00
34201;DHT22;20469;55.638;37.670;2022-10-16T10:54:15;15.90;1.00
34201;DHT22;20469;55.638;37.670;2022-10-16T10:57:55;15.60;1.00
34201;DHT22;20469;55.638;37.670;2022-10-16T11:00:02;16.30;1.00
34201;DHT22;20469;55.638;37.670;2022-10-16T11:02:40;18.40;1.00
34201;DHT22;20469;55.638;37.670;2022-10-16T11:05:33;16.10;1.00
34201;DHT22;20469;55.638;37.670;2022-10-16T11:10:58;18.00;1.00
34201;DHT22;20469;55.638;37.670;2022-10-16T11:13:34;18.60;1.00
34201;DHT22;20469;55.638;37.670;2022-10-16T11:16:26;17.80;1.00
34201;DHT22;20469;55.638;37.670;2022-10-16T11:19:25;16.40;1.00
34201;DHT22;20469;55.638;37.670;2022-10-16T11:27:58;18.20;1.00
34201;DHT22;20469;55.638;37.670;2022-10-16T11:30:31;20.30;1.00
34201;DHT22;20469;55.638;37.670;2022-10-16T11:33:18;17.20;1.00
34201;DHT22;20469;55.638;37.670;2022-10-16T11:36:13;16.40;1.00
34201;DHT22;20469;55.638;37.670;2022-10-16T11:38:59;16.80;1.00
34201;DHT22;20469;55.638;37.670;2022-10-16T11:41:42;15.90;1.00
34201;DHT22;20469;55.638;37.670;2022-10-16T11:50:24;16.00;1.00
34201;DHT22;20469;55.638;37.670;2022-10-16T11:53:04;16.70;1.00
34201;DHT22;20469;55.638;37.670;2022-10-16T11:55:39;16.50;1.00
34201;DHT22;20469;55.638;37.670;2022-10-16T11:58:29;16.70;1.00
34201;DHT22;20469;55.638;37.670;2022-10-16T12:01:24;16.00;1.00
34201;DHT22;20469;55.638;37.670;2022-10-16T12:04:11;15.90;1.00
34201;DHT22;20469;55.638;37.670;2022-10-16T12:06:52;16.20;1.00
34201;DHT22;20469;55.638;37.670;2022-10-16T12:09:26;15.90;1.00
34201;DHT22;20469;55.638;37.670;2022-10-16T12:14:39;16.60;1.00
34201;DHT22;20469;55.638;37.670;2022-10-16T12:17:38;17.90;1.00
34201;DHT22;20469;55.638;37.670;2022-10-16T12:20:24;16.60;1.00
34201;DHT22;20469;55.638;37.670;2022-10-16T12:25:39;18.10;1.00
34201;DHT22;20469;55.638;37.670;2022-10-16T12:28:21;17.40;1.00
34201;DHT22;20469;55.638;37.670;2022-10-16T12:30:56;16.20;1.00
34201;DHT22;20469;55.638;37.670;2022-10-16T12:33:34;16.40;1.00
34201;DHT22;20469;55.638;37.670;2022-10-16T12:36:13;17.00;1.00
34201;DHT22;20469;55.638;37.670;2022-10-16T12:38:50;16.60;1.00
34201;DHT22;20469;55.638;37.670;2022-10-16T12:41:34;16.00;1.00
34201;DHT22;20469;55.638;37.670;2022-10-16T12:46:38;13.50;1.00
34201;DHT22;20469;55.638;37.670;2022-10-16T12:49:21;14.00;3.50
34201;DHT22;20469;55.638;37.670;2022-10-16T12:54:30;13.40;1.00
34201;DHT22;20469;55.638;37.670;2022-10-16T12:57:27;13.20;1.00
34201;DHT22;20469;55.638;37.670;2022-10-16T13:00:21;13.20;1.00
34201;DHT22;20469;55.638;37.670;2022-10-16T13:03:18;13.30;1.00
34201;DHT22;20469;55.638;37.670;2022-10-16T13:09:07;15.20;1.00
34201;DHT22;20469;55.638;37.670;2022-10-16T13:12:02;15.40;1.00
34201;DHT22;20469;55.638;37.670;2022-10-16T13:20:35;15.60;1.00
34201;DHT22;20469;55.638;37.670;2022-10-16T13:28:45;14.60;1.00
34201;DHT22;20469;55.638;37.670;2022-10-16T13:31:31;14.60;1.00
34201;DHT22;20469;55.638;37.670;2022-10-16T13:34:00;15.10;1.00
34201;DHT22;20469;55.638;37.670;2022-10-16T13:36:35;14.60;1.00
34201;DHT22;20469;55.638;37.670;2022-10-16T13:39:11;14.50;1.00
34201;DHT22;20469;55.638;37.670;2022-10-16T13:44:25;13.60;1.00
34201;DHT22;20469;55.638;37.670;2022-10-16T13:47:01;12.70;1.00
34201;DHT22;20469;55.638;37.670;2022-10-16T13:51:59;12.70;1.00
34201;DHT22;20469;55.638;37.670;2022-10-16T13:54:28;12.10;1.00
34201;DHT22;20469;55.638;37.670;2022-10-16T13:59:34;12.30;1.00
34201;DHT22;20469;55.638;37.670;2022-10-16T14:02:15;12.40;1.00
34201;DHT22;20469;55.638;37.670;2022-10-16T14:04:46;12.30;1.00
34201;DHT22;20469;55.638;37.670;2022-10-16T14:07:24;12.30;1.00
34201;DHT22;20469;55.638;37.670;2022-10-16T14:09:54;12.20;1.00
34201;DHT22;20469;55.638;37.670;2022-10-16T14:12:24;12.60;1.00
34201;DHT22;20469;55.638;37.670;2022-10-16T14:14:55;12.10;1.00
34201;DHT22;20469;55.638;37.670;2022-10-16T14:17:27;12.10;1.00
34201;DHT22;20469;55.638;37.670;2022-10-16T14:19:58;14.10;1.00
34201;DHT22;20469;55.638;37.670;2022-10-16T14:22:34;12.00;1.00
34201;DHT22;20469;55.638;37.670;2022-10-16T14:25:24;12.10;1.00
34201;DHT22;20469;55.638;37.670;2022-10-16T14:27:59;12.20;1.00
34201;DHT22;20469;55.638;37.670;2022-10-16T14:30:29;11.80;1.00
34201;DHT22;20469;55.638;37.670;2022-10-16T14:33:05;11.80;1.00
34201;DHT22;20469;55.638;37.670;2022-10-16T14:35:36;11.70;1.00
34201;DHT22;20469;55.638;37.670;2022-10-16T14:38:06;11.70;1.00
34201;DHT22;20469;55.638;37.670;2022-10-16T14:40:47;11.70;1.00
34201;DHT22;20469;55.638;37.670;2022-10-16T14:43:22;11.60;1.00
34201;DHT22;20469;55.638;37.670;2022-10-16T14:45:52;14.80;1.00
34201;DHT22;20469;55.638;37.670;2022-10-16T14:48:23;12.10;4.50
34201;DHT22;20469;55.638;37.670;2022-10-16T14:55:49;11.40;1.00
34201;DHT22;20469;55.638;37.670;2022-10-16T14:58:21;11.40;1.00
34201;DHT22;20469;55.638;37.670;2022-10-16T15:03:21;11.30;1.00
34201;DHT22;20469;55.638;37.670;2022-10-16T15:05:49;11.70;1.00
34201;DHT22;20469;55.638;37.670;2022-10-16T15:10:44;11.10;1.00
34201;DHT22;20469;55.638;37.670;2022-10-16T15:13:15;13.30;1.00
34201;DHT22;20469;55.638;37.670;2022-10-16T15:15:45;11.20;1.00
34201;DHT22;20469;55.638;37.670;2022-10-16T15:20:49;11.70;21.70
34201;DHT22;20469;55.638;37.670;2022-10-16T15:23:21;11.20;1.00
34201;DHT22;20469;55.638;37.670;2022-10-16T15:25:53;11.00;1.00
34201;DHT22;20469;55.638;37.670;2022-10-16T15:28:22;10.80;1.00
34201;DHT22;20469;55.638;37.670;2022-10-16T15:30:55;11.00;1.00
34201;DHT22;20469;55.638;37.670;2022-10-16T15:33:27;10.80;1.00
34201;DHT22;20469;55.638;37.670;2022-10-16T15:36:06;10.90;1.00
34201;DHT22;20469;55.638;37.670;2022-10-16T15:38:34;10.80;1.00
34201;DHT22;20469;55.638;37.670;2022-10-16T15:46:12;11.40;6.10
34201;DHT22;20469;55.638;37.670;2022-10-16T15:56:12;10.60;2.30
34201;DHT22;20469;55.638;37.670;2022-10-16T16:03:38;10.60;3.10
34201;DHT22;20469;55.638;37.670;2022-10-16T16:06:10;10.60;3.20
34201;DHT22;20469;55.638;37.670;2022-10-16T16:08:39;10.50;3.50
34201;DHT22;20469;55.638;37.670;2022-10-16T16:11:13;10.60;3.60
34201;DHT22;20469;55.638;37.670;2022-10-16T16:16:12;10.50;9.70
34201;DHT22;20469;55.638;37.670;2022-10-16T16:18:41;10.30;5.30
34201;DHT22;20469;55.638;37.670;2022-10-16T16:21:11;10.30;5.90
34201;DHT22;20469;55.638;37.670;2022-10-16T16:26:24;10.40;7.30
34201;DHT22;20469;55.638;37.670;2022-10-16T16:28:54;10.10;7.40
34201;DHT22;20469;55.638;37.670;2022-10-16T16:31:25;10.20;6.90
34201;DHT22;20469;55.638;37.670;2022-10-16T16:36:25;9.20;6.80
34201;DHT22;20469;55.638;37.670;2022-10-16T16:41:25;10.20;7.20
34201;DHT22;20469;55.638;37.670;2022-10-16T16:46:22;10.20;6.80
34201;DHT22;20469;55.638;37.670;2022-10-16T16:53:52;10.20;7.10
34201;DHT22;20469;55.638;37.670;2022-10-16T16:56:27;8.70;6.00
34201;DHT22;20469;55.638;37.670;2022-10-16T16:58:56;10.00;7.20
34201;DHT22;20469;55.638;37.670;2022-10-16T17:01:26;10.10;7.30
34201;DHT22;20469;55.638;37.670;2022-10-16T17:03:56;9.90;7.10
34201;DHT22;20469;55.638;37.670;2022-10-16T17:06:30;10.00;7.50
34201;DHT22;20469;55.638;37.670;2022-10-16T17:09:02;9.20;7.00
34201;DHT22;20469;55.638;37.670;2022-10-16T17:11:33;9.90;7.60
34201;DHT22;20469;55.638;37.670;2022-10-16T17:14:02;9.70;29.50
34201;DHT22;20469;55.638;37.670;2022-10-16T17:16:34;9.80;10.40
34201;DHT22;20469;55.638;37.670;2022-10-16T17:19:07;9.80;18.40
34201;DHT22;20469;55.638;37.670;2022-10-16T17:21:37;9.90;7.10
34201;DHT22;20469;55.638;37.670;2022-10-16T17:24:07;9.80;7.10
34201;DHT22;20469;55.638;37.670;2022-10-16T17:26:36;9.80;6.80
34201;DHT22;20469;55.638;37.670;2022-10-16T17:29:11;9.80;17.10
34201;DHT22;20469;55.638;37.670;2022-10-16T17:34:09;9.70;7.20
34201;DHT22;20469;55.638;37.670;2022-10-16T17:36:40;9.80;6.40
34201;DHT22;20469;55.638;37.670;2022-10-16T17:39:15;9.70;20.10
34201;DHT22;20469;55.638;37.670;2022-10-16T17:41:46;9.50;7.50
34201;DHT22;20469;55.638;37.670;2022-10-16T17:44:15;9.60;29.70
34201;DHT22;20469;55.638;37.670;2022-10-16T17:46:51;9.10;30.90
34201;DHT22;20469;55.638;37.670;2022-10-16T17:49:20;9.30;8.10
34201;DHT22;20469;55.638;37.670;2022-10-16T17:51:51;9.60;7.90
34201;DHT22;20469;55.638;37.670;2022-10-16T17:59:17;9.40;8.60
34201;DHT22;20469;55.638;37.670;2022-10-16T18:09:17;9.20;9.50
34201;DHT22;20469;55.638;37.670;2022-10-16T18:11:48;9.10;9.50
34201;DHT22;20469;55.638;37.670;2022-10-16T18:14:18;9.20;9.70
34201;DHT22;20469;55.638;37.670;2022-10-16T18:16:47;9.00;31.90
34201;DHT22;20469;55.638;37.670;2022-10-16T18:24:17;9.00;10.00
34201;DHT22;20469;55.638;37.670;2022-10-16T18:26:49;9.00;10.10
34201;DHT22;20469;55.638;37.670;2022-10-16T18:29:19;9.00;10.00
34201;DHT22;20469;55.638;37.670;2022-10-16T18:41:50;8.60;21.20
34201;DHT22;20469;55.638;37.670;2022-10-16T18:49:18;8.70;35.90
34201;DHT22;20469;55.638;37.670;2022-10-16T18:51:47;8.60;11.90
34201;DHT22;20469;55.638;37.670;2022-10-16T18:54:17;8.60;34.00
34201;DHT22;20469;55.638;37.670;2022-10-16T18:59:16;8.50;13.00
34201;DHT22;20469;55.638;37.670;2022-10-16T19:01:45;8.80;37.50
34201;DHT22;20469;55.638;37.670;2022-10-16T19:04:16;8.60;13.20
34201;DHT22;20469;55.638;37.670;2022-10-16T19:06:45;8.50;13.20
34201;DHT22;20469;55.638;37.670;2022-10-16T19:09:16;8.60;38.00
34201;DHT22;20469;55.638;37.670;2022-10-16T19:14:14;8.20;14.20
34201;DHT22;20469;55.638;37.670;2022-10-16T19:16:43;8.50;14.00
34201;DHT22;20469;55.638;37.670;2022-10-16T19:19:15;8.30;30.50
34201;DHT22;20469;55.638;37.670;2022-10-16T19:21:45;8.20;14.80
34201;DHT22;20469;55.638;37.670;2022-10-16T19:24:15;8.00;40.00
34201;DHT22;20469;55.638;37.670;2022-10-16T19:29:12;8.00;34.80
34201;DHT22;20469;55.638;37.670;2022-10-16T19:34:10;8.20;14.80
34201;DHT22;20469;55.638;37.670;2022-10-16T19:36:39;8.90;15.60
34201;DHT22;20469;55.638;37.670;2022-10-16T19:39:12;8.20;41.20
34201;DHT22;20469;55.638;37.670;2022-10-16T19:41:41;8.20;15.70
34201;DHT22;20469;55.638;37.670;2022-10-16T19:44:12;8.10;16.00
34201;DHT22;20469;55.638;37.670;2022-10-16T19:46:41;8.00;19.00
34201;DHT22;20469;55.638;37.670;2022-10-16T19:49:14;8.10;16.20
34201;DHT22;20469;55.638;37.670;2022-10-16T19:51:48;8.10;15.90
34201;DHT22;20469;55.638;37.670;2022-10-16T19:59:12;3.40;14.80
34201;DHT22;20469;55.638;37.670;2022-10-16T20:01:42;8.10;16.60
34201;DHT22;20469;55.638;37.670;2022-10-16T20:04:11;8.00;16.60
34201;DHT22;20469;55.638;37.670;2022-10-16T20:11:36;8.60;36.40
34201;DHT22;20469;55.638;37.670;2022-10-16T20:14:05;8.20;43.80
34201;DHT22;20469;55.638;37.670;2022-10-16T20:16:34;9.90;18.90
34201;DHT22;20469;55.638;37.670;2022-10-16T20:21:33;7.90;40.10
34201;DHT22;20469;55.638;37.670;2022-10-16T20:24:02;8.10;25.40
34201;DHT22;20469;55.638;37.670;2022-10-16T20:26:34;7.80;18.40
34201;DHT22;20469;55.638;37.670;2022-10-16T20:29:03;7.90;18.50
34201;DHT22;20469;55.638;37.670;2022-10-16T20:31:33;7.30;45.20
34201;DHT22;20469;55.638;37.670;2022-10-16T20:34:04;7.90;18.70
34201;DHT22;20469;55.638;37.670;2022-10-16T20:36:34;7.90;19.10
34201;DHT22;20469;55.638;37.670;2022-10-16T20:39:04;7.70;19.20
34201;DHT22;20469;55.638;37.670;2022-10-16T20:41:35;7.70;19.30
34201;DHT22;20469;55.638;37.670;2022-10-16T20:44:03;7.70;19.70
34201;DHT22;20469;55.638;37.670;2022-10-16T20:46:32;7.50;45.90
34201;DHT22;20469;55.638;37.670;2022-10-16T20:49:01;7.90;19.30
34201;DHT22;20469;55.638;37.670;2022-10-16T20:59:10;7.70;21.10
34201;DHT22;20469;55.638;37.670;2022-10-16T21:04:08;7.60;20.90
34201;DHT22;20469;55.638;37.670;2022-10-16T21:06:37;7.50;21.40
34201;DHT22;20469;55.638;37.670;2022-10-16T21:09:06;7.70;22.30
34201;DHT22;20469;55.638;37.670;2022-10-16T21:11:35;7.40;29.40
34201;DHT22;20469;55.638;37.670;2022-10-16T21:14:05;7.40;22.50
34201;DHT22;20469;55.638;37.670;2022-10-16T21:16:33;7.50;22.80
34201;DHT22;20469;55.638;37.670;2022-10-16T21:21:30;7.40;51.00
34201;DHT22;20469;55.638;37.670;2022-10-16T21:23:59;7.40;52.10
34201;DHT22;20469;55.638;37.670;2022-10-16T21:26:28;7.30;24.60
34201;DHT22;20469;55.638;37.670;2022-10-16T21:28:59;7.50;48.00
34201;DHT22;20469;55.638;37.670;2022-10-16T21:31:27;6.80;52.90
34201;DHT22;20469;55.638;37.670;2022-10-16T21:33:55;7.00;28.90
34201;DHT22;20469;55.638;37.670;2022-10-16T21:36:26;7.30;25.60
34201;DHT22;20469;55.638;37.670;2022-10-16T21:38:54;7.50;54.80
34201;DHT22;20469;55.638;37.670;2022-10-16T21:41:24;7.30;25.70
34201;DHT22;20469;55.638;37.670;2022-10-16T21:43:53;7.30;26.30
34201;DHT22;20469;55.638;37.670;2022-10-16T21:46:23;7.10;26.00
34201;DHT22;20469;55.638;37.670;2022-10-16T21:48:55;6.70;54.00
34201;DHT22;20469;55.638;37.670;2022-10-16T21:51:28;7.10;26.40
34201;DHT22;20469;55.638;37.670;2022-10-16T21:53:56;6.70;54.40
34201;DHT22;20469;55.638;37.670;2022-10-16T21:56:23;7.30;31.20
34201;DHT22;20469;55.638;37.670;2022-10-16T22:01:21;7.00;27.80
34201;DHT22;20469;55.638;37.670;2022-10-16T22:03:49;7.40;28.00
34201;DHT22;20469;55.638;37.670;2022-10-16T22:06:19;7.00;27.30
34201;DHT22;20469;55.638;37.670;2022-10-16T22:08:48;6.70;56.00
34201;DHT22;20469;55.638;37.670;2022-10-16T22:11:19;6.60;33.80
34201;DHT22;20469;55.638;37.670;2022-10-16T22:13:49;7.20;28.10
34201;DHT22;20469;55.638;37.670;2022-10-16T22:16:24;6.90;31.70
34201;DHT22;20469;55.638;37.670;2022-10-16T22:18:53;6.90;29.00
34201;DHT22;20469;55.638;37.670;2022-10-16T22:21:24;7.00;28.90
34201;DHT22;20469;55.638;37.670;2022-10-16T22:23:52;7.30;29.90
34201;DHT22;20469;55.638;37.670;2022-10-16T22:33:43;7.30;38.30
34201;DHT22;20469;55.638;37.670;2022-10-16T22:36:13;7.20;59.40
34201;DHT22;20469;55.638;37.670;2022-10-16T22:38:40;7.30;49.30
34201;DHT22;20469;55.638;37.670;2022-10-16T22:41:11;6.90;30.10
34201;DHT22;20469;55.638;37.670;2022-10-16T22:43:40;6.70;60.80
34201;DHT22;20469;55.638;37.670;2022-10-16T22:46:14;6.90;31.50
34201;DHT22;20469;55.638;37.670;2022-10-16T22:51:12;6.90;31.00
34201;DHT22;20469;55.638;37.670;2022-10-16T22:53:45;6.80;31.60
34201;DHT22;20469;55.638;37.670;2022-10-16T22:56:14;6.60;33.40
34201;DHT22;20469;55.638;37.670;2022-10-16T22:58:42;6.90;64.80
34201;DHT22;20469;55.638;37.670;2022-10-16T23:01:15;6.80;32.70
34201;DHT22;20469;55.638;37.670;2022-10-16T23:11:08;6.70;35.20
34201;DHT22;20469;55.638;37.670;2022-10-16T23:13:39;6.60;35.70
34201;DHT22;20469;55.638;37.670;2022-10-16T23:16:13;6.60;36.70
34201;DHT22;20469;55.638;37.670;2022-10-16T23:18:42;6.70;36.40
34201;DHT22;20469;55.638;37.670;2022-10-16T23:21:12;6.70;36.40
34201;DHT22;20469;55.638;37.670;2022-10-16T23:23:41;6.60;37.60
34201;DHT22;20469;55.638;37.670;2022-10-16T23:26:11;6.50;37.60
34201;DHT22;20469;55.638;37.670;2022-10-16T23:31:07;6.50;38.10
34201;DHT22;20469;55.638;37.670;2022-10-16T23:33:35;6.60;39.80
34201;DHT22;20469;55.638;37.670;2022-10-16T23:36:05;6.60;38.30
